Time;durP1;ratioP1;P1;durP2;ratioP2;P2;SDS_P1;SDS_P2;PMS_P1;PMS_P2;Temp;Humidity;BMP_temperature;BMP_pressure;BME280_temperature;BME280_humidity;BME280_pressure;Samples;Min_cycle;Max_cycle;Signal;HPM_P1;HPM_P2
2024/02/09 00:00:08;;;;;;;24.80;16.10;;;;;;;2.96;100.00;100196.38;106061;1252;60509;-81
2024/02/09 00:02:44;;;;;;;25.10;15.80;;;;;;;2.96;100.00;100192.74;106005;1252;73929;-79
2024/02/09 00:05:13;;;;;;;23.30;16.00;;;;;;;2.94;100.00;100184.54;105944;1257;63612;-80
2024/02/09 00:07:45;;;;;;;22.50;15.60;;;;;;;2.93;100.00;100175.94;105849;1253;72743;-81
2024/02/09 00:10:18;;;;;;;23.00;15.60;;;;;;;2.95;100.00;100174.65;106191;1255;60882;-80
2024/02/09 00:12:48;;;;;;;19.90;13.50;;;;;;;2.97;100.00;100173.05;106105;1255;60450;-82
2024/02/09 00:15:18;;;;;;;22.10;15.10;;;;;;;2.96;100.00;100182.04;105935;1251;74978;-81
2024/02/09 00:17:45;;;;;;;23.10;15.30;;;;;;;2.98;100.00;100193.36;105988;1256;63883;-82
2024/02/09 00:20:12;;;;;;;20.60;13.80;;;;;;;3.02;100.00;100181.14;105878;1251;72484;-82
2024/02/09 00:22:39;;;;;;;17.90;11.00;;;;;;;3.01;100.00;100173.39;105858;1255;60916;-80
2024/02/09 00:25:10;;;;;;;17.80;11.60;;;;;;;2.99;100.00;100177.80;105780;1251;60503;-79
2024/02/09 00:27:38;;;;;;;16.50;10.60;;;;;;;2.96;100.00;100178.08;105973;1255;73823;-80
2024/02/09 00:30:06;;;;;;;13.20;10.60;;;;;;;2.92;100.00;100156.11;105871;1253;62867;-80
2024/02/09 00:32:34;;;;;;;11.70;8.60;;;;;;;2.88;100.00;100150.91;105966;1255;71673;-80
2024/02/09 00:35:02;;;;;;;14.70;9.20;;;;;;;2.87;100.00;100148.68;106204;1255;61185;-78
2024/02/09 00:37:31;;;;;;;11.00;8.70;;;;;;;2.85;100.00;100143.06;106973;1252;60534;-79
2024/02/09 00:39:59;;;;;;;10.30;7.90;;;;;;;2.84;100.00;100145.85;106186;1251;72540;-80
2024/02/09 00:42:27;;;;;;;8.40;7.20;;;;;;;2.83;100.00;100149.88;105984;1253;63841;-81
2024/02/09 00:44:55;;;;;;;10.70;7.60;;;;;;;2.81;100.00;100146.31;106015;1253;72689;-81
2024/02/09 00:47:22;;;;;;;14.30;8.80;;;;;;;2.81;100.00;100143.37;106019;1256;61240;-81
2024/02/09 00:49:49;;;;;;;17.00;9.50;;;;;;;2.83;100.00;100142.64;106087;1253;60501;-80
2024/02/09 00:52:17;;;;;;;17.30;9.50;;;;;;;2.84;100.00;100146.38;106013;1253;73823;-81
2024/02/09 00:54:45;;;;;;;16.60;8.70;;;;;;;2.84;100.00;100143.96;106001;1253;63926;-80
2024/02/09 00:57:12;;;;;;;14.50;8.40;;;;;;;2.84;100.00;100142.93;106007;1253;72722;-82
2024/02/09 00:59:39;;;;;;;11.70;7.80;;;;;;;2.86;100.00;100144.08;106026;1253;60339;-80
2024/02/09 01:02:06;;;;;;;12.30;8.00;;;;;;;2.90;100.00;100148.59;105989;1251;60542;-80
2024/02/09 01:04:34;;;;;;;12.40;7.90;;;;;;;2.92;100.00;100142.30;106044;1251;72347;-80
2024/02/09 01:07:03;;;;;;;10.00;7.10;;;;;;;2.92;100.00;100149.73;106024;1255;63920;-80
2024/02/09 01:09:32;;;;;;;9.50;6.10;;;;;;;2.90;100.00;100154.46;105979;1251;71861;-80
2024/02/09 01:12:02;;;;;;;10.70;7.60;;;;;;;2.90;100.00;100163.45;105945;1255;61010;-81
2024/02/09 02:45:27;;;;;;;16.40;10.80;;;;;;;2.53;100.00;100072.61;105977;1253;72471;-81
2024/02/09 03:04:29;;;;;;;28.40;18.30;;;;;;;2.66;100.00;100071.23;105911;1254;60473;-83
2024/02/09 03:06:56;;;;;;;31.70;21.20;;;;;;;2.62;100.00;100065.52;105935;1253;73809;-81
2024/02/09 03:09:43;;;;;;;31.80;23.00;;;;;;;2.58;100.00;100060.16;106041;1255;63975;-81
2024/02/09 03:12:13;;;;;;;32.10;19.90;;;;;;;2.54;100.00;100056.52;105913;1253;71659;-81
2024/02/09 03:14:40;;;;;;;30.50;20.90;;;;;;;2.49;100.00;100058.23;106240;1251;60473;-81
2024/02/09 03:17:08;;;;;;;27.00;20.20;;;;;;;2.45;100.00;100053.73;106137;1254;60578;-81
2024/02/09 03:19:35;;;;;;;29.10;22.70;;;;;;;2.42;100.00;100056.07;106102;1251;72337;-79
2024/02/09 03:22:02;;;;;;;26.70;19.90;;;;;;;2.43;100.00;100067.27;106119;1255;62346;-82
2024/02/09 03:24:29;;;;;;;32.60;21.30;;;;;;;2.44;100.00;100074.14;105956;1256;72519;-81
2024/02/09 03:26:56;;;;;;;26.00;19.40;;;;;;;2.43;100.00;100088.30;105820;1253;61183;-82
2024/02/09 03:29:24;;;;;;;30.60;19.20;;;;;;;2.42;100.00;100084.89;105573;1253;60528;-81
2024/02/09 03:31:52;;;;;;;27.80;20.00;;;;;;;2.41;100.00;100077.33;105863;1254;72433;-82
2024/02/09 03:34:20;;;;;;;27.60;19.90;;;;;;;2.41;100.00;100067.99;105632;1258;63909;-82
2024/02/09 03:36:47;;;;;;;28.80;20.50;;;;;;;2.41;100.00;100059.02;105897;1253;71248;-82
2024/02/09 03:39:14;;;;;;;31.80;19.80;;;;;;;2.40;100.00;100054.92;105745;1258;60481;-80
2024/02/09 03:41:41;;;;;;;32.40;22.20;;;;;;;2.39;100.00;100054.10;106004;1254;60424;-83
2024/02/09 03:44:09;;;;;;;32.10;21.40;;;;;;;2.37;100.00;100050.23;106010;1257;72612;-82
2024/02/09 03:46:36;;;;;;;33.90;22.80;;;;;;;2.36;100.00;100052.33;106051;1253;63947;-83
2024/02/09 03:49:04;;;;;;;31.00;21.10;;;;;;;2.34;100.00;100045.31;105990;1258;72705;-83
2024/02/09 03:51:32;;;;;;;26.30;19.50;;;;;;;2.33;100.00;100045.19;106126;1258;61141;-81
2024/02/09 03:53:59;;;;;;;28.90;19.80;;;;;;;2.30;100.00;100046.86;105915;1256;60436;-83
2024/02/09 03:56:27;;;;;;;27.00;18.80;;;;;;;2.26;100.00;100044.91;106352;1252;72782;-82
2024/02/09 03:58:54;;;;;;;31.80;20.60;;;;;;;2.23;100.00;100047.95;106353;1253;62907;-81
2024/02/09 04:01:22;;;;;;;30.30;20.90;;;;;;;2.22;100.00;100051.42;106384;1256;71419;-78
2024/02/09 04:03:49;;;;;;;35.70;24.10;;;;;;;2.24;100.00;100050.52;106514;1259;61043;-79
2024/02/09 04:06:16;;;;;;;34.50;22.80;;;;;;;2.28;100.00;100050.88;106819;1256;59355;-81
2024/02/09 04:08:45;;;;;;;34.00;24.40;;;;;;;2.33;100.00;100047.77;105990;1258;73875;-81
2024/02/09 04:11:17;;;;;;;34.90;24.30;;;;;;;2.37;100.00;100047.09;105991;1253;62306;-78
2024/02/09 04:13:44;;;;;;;34.30;22.60;;;;;;;2.41;100.00;100040.95;105787;1259;72344;-80
2024/02/09 04:16:11;;;;;;;33.90;22.80;;;;;;;2.39;100.00;100038.27;105865;1257;61367;-81
2024/02/09 04:18:38;;;;;;;29.90;19.90;;;;;;;2.37;100.00;100035.21;106036;1258;60429;-82
2024/02/09 04:21:06;;;;;;;31.00;20.90;;;;;;;2.34;100.00;100038.63;105838;1258;73287;-83
2024/02/09 04:23:33;;;;;;;33.30;20.40;;;;;;;2.32;100.00;100039.52;105960;1257;63966;-82
2024/02/09 04:26:01;;;;;;;32.00;20.30;;;;;;;2.33;100.00;100035.01;105818;1253;72706;-82
2024/02/09 04:28:28;;;;;;;28.70;18.30;;;;;;;2.33;100.00;100041.56;105888;1253;61224;-83
2024/02/09 04:30:55;;;;;;;31.80;20.70;;;;;;;2.34;100.00;100040.14;106013;1257;60394;-83
2024/02/09 04:33:23;;;;;;;34.40;20.80;;;;;;;2.37;100.00;100042.61;105999;1258;73788;-83
2024/02/09 04:35:50;;;;;;;30.00;18.90;;;;;;;2.42;100.00;100041.74;105782;1258;63927;-81
2024/02/09 04:38:18;;;;;;;31.90;20.40;;;;;;;2.44;100.00;100033.05;105841;1253;71452;-85
2024/02/09 04:40:46;;;;;;;34.00;19.80;;;;;;;2.47;100.00;100028.27;106016;1257;61099;-84
2024/02/09 04:43:13;;;;;;;28.80;18.90;;;;;;;2.50;100.00;100024.73;106003;1260;60404;-80
2024/02/09 04:45:41;;;;;;;31.70;20.10;;;;;;;2.52;100.00;100022.42;105875;1253;73870;-82
2024/02/09 04:48:10;;;;;;;27.60;18.40;;;;;;;2.57;100.00;100017.41;106040;1253;62429;-84
2024/02/09 04:50:38;;;;;;;28.90;18.20;;;;;;;2.62;100.00;100008.94;105880;1253;71448;-85
2024/02/09 04:53:05;;;;;;;31.10;17.40;;;;;;;2.65;100.00;100003.30;105800;1258;61142;-82
2024/02/09 04:55:34;;;;;;;26.30;17.10;;;;;;;2.65;100.00;100002.27;105964;1259;60586;-86
2024/02/09 04:58:03;;;;;;;29.40;16.60;;;;;;;2.64;100.00;100001.98;105860;1257;71712;-83
2024/02/09 05:00:30;;;;;;;30.10;19.00;;;;;;;2.65;100.00;100002.62;106026;1253;64192;-84
2024/02/09 05:02:57;;;;;;;30.60;18.40;;;;;;;2.66;100.00;99999.13;105619;1259;72781;-84
2024/02/09 05:05:32;;;;;;;23.00;15.70;;;;;;;2.63;100.00;99989.21;105770;1253;61523;-84
2024/02/09 05:07:59;;;;;;;;;;;;;;;2.59;100.00;99986.63;105787;1259;60391;-82
2024/02/09 05:10:27;;;;;;;26.00;16.30;;;;;;;2.56;100.00;99986.38;106117;1255;73898;-82
2024/02/09 05:13:02;;;;;;;25.40;16.20;;;;;;;2.58;100.00;99993.38;106165;1258;64180;-81
2024/02/09 05:15:29;;;;;;;21.60;15.20;;;;;;;2.62;100.00;99992.71;107316;1257;72534;-82
2024/02/09 05:17:56;;;;;;;25.40;15.40;;;;;;;2.63;100.00;99995.42;106058;1259;60475;-81
2024/02/09 05:20:24;;;;;;;22.20;14.60;;;;;;;2.64;100.00;99993.85;106283;1253;60451;-82
2024/02/09 05:22:51;;;;;;;19.60;13.90;;;;;;;2.65;100.00;99996.23;106487;1256;72746;-81
2024/02/09 05:25:20;;;;;;;21.30;13.70;;;;;;;2.64;100.00;99996.27;106243;1255;64186;-80
2024/02/09 05:27:49;;;;;;;19.30;13.80;;;;;;;2.65;100.00;99991.58;105952;1256;71507;-82
2024/02/09 05:30:16;;;;;;;15.30;10.90;;;;;;;2.66;100.00;99991.52;106076;1258;60563;-82
2024/02/09 05:32:43;;;;;;;16.40;11.70;;;;;;;2.62;100.00;99987.73;106015;1253;60444;-81
2024/02/09 05:35:11;;;;;;;16.90;12.20;;;;;;;2.57;100.00;99984.81;105958;1255;73932;-83
2024/02/09 05:37:38;;;;;;;15.90;10.90;;;;;;;2.54;100.00;99988.71;106009;1262;62480;-80
2024/02/09 05:40:06;;;;;;;14.70;10.90;;;;;;;2.50;100.00;99979.37;105831;1255;73615;-83
2024/02/09 05:42:33;;;;;;;12.90;9.60;;;;;;;2.51;100.00;99975.70;105742;1254;60629;-81
2024/02/09 05:44:59;;;;;;;13.70;10.40;;;;;;;2.51;100.00;99970.70;105748;1254;60470;-80
2024/02/09 05:47:30;;;;;;;13.70;11.00;;;;;;;2.49;100.00;99965.76;105677;1255;73404;-83
2024/02/09 05:49:58;;;;;;;15.80;10.80;;;;;;;2.48;100.00;99966.13;105833;1253;64091;-83
2024/02/09 05:52:26;;;;;;;14.00;10.20;;;;;;;2.44;100.00;99971.30;105927;1257;71718;-82
2024/02/09 05:54:55;;;;;;;13.90;9.80;;;;;;;2.38;100.00;99970.31;105925;1257;61149;-82
2024/02/09 05:57:26;;;;;;;15.00;9.70;;;;;;;2.32;100.00;99970.02;106064;1258;60394;-83
2024/02/09 06:02:11;;;;;;;13.50;9.50;;;;;;;2.23;100.00;99958.63;104272;1292;601297;-82
2024/02/09 06:04:39;;;;;;;12.10;9.10;;;;;;;2.17;100.00;99958.67;105319;1267;60425;-84
2024/02/09 06:07:07;;;;;;;14.80;11.00;;;;;;;2.16;100.00;99969.40;105275;1267;60041;-83
2024/02/09 06:09:37;;;;;;;13.20;10.80;;;;;;;2.14;100.00;99976.73;105336;1265;71506;-82
2024/02/09 06:12:05;;;;;;;11.80;9.60;;;;;;;2.09;100.00;99969.97;105230;1271;63696;-84
2024/02/09 06:14:32;;;;;;;12.90;10.60;;;;;;;2.10;100.00;99977.02;105391;1266;73982;-82
2024/02/09 06:17:02;;;;;;;11.20;10.00;;;;;;;2.12;100.00;99977.63;105684;1259;205923;-81
2024/02/09 06:19:29;;;;;;;13.90;10.70;;;;;;;2.12;100.00;99981.09;105745;1261;59274;-82
2024/02/09 06:21:57;;;;;;;14.10;11.20;;;;;;;2.11;100.00;99978.35;106338;1253;70779;-82
2024/02/09 06:24:25;;;;;;;17.00;12.30;;;;;;;2.10;100.00;99977.55;109587;1253;62298;-82
2024/02/09 06:26:53;;;;;;;20.10;15.70;;;;;;;2.08;100.00;99977.58;109586;1250;71412;-82
2024/02/09 06:29:21;;;;;;;19.40;13.30;;;;;;;2.11;100.00;99978.37;109572;1251;61281;-81
2024/02/09 06:31:53;;;;;;;16.90;11.90;;;;;;;2.15;100.00;99969.42;109589;1251;59058;-81
2024/02/09 06:34:22;;;;;;;15.30;11.90;;;;;;;2.15;100.00;99964.09;109719;1252;73643;-84
2024/02/09 06:36:50;;;;;;;18.10;13.50;;;;;;;2.13;100.00;99969.51;109597;1251;62511;-85
2024/02/09 06:39:17;;;;;;;17.10;14.50;;;;;;;2.09;100.00;99969.47;109564;1251;71639;-83
2024/02/09 06:41:47;;;;;;;21.30;15.90;;;;;;;2.05;100.00;99965.61;109613;1252;60925;-82
2024/02/09 06:44:15;;;;;;;20.40;16.10;;;;;;;2.06;100.00;99959.75;109620;1251;59066;-83
2024/02/09 06:46:42;;;;;;;17.60;14.30;;;;;;;2.06;100.00;99956.63;109674;1251;73032;-83
2024/02/09 06:49:09;;;;;;;15.70;12.00;;;;;;;2.04;100.00;99960.16;109615;1251;63424;-86
2024/02/09 06:51:38;;;;;;;17.10;12.20;;;;;;;2.01;100.00;99952.17;109549;1251;72762;-84
2024/02/09 06:54:06;;;;;;;15.80;12.30;;;;;;;1.96;100.00;99946.81;109566;1251;59641;-83
2024/02/09 06:56:34;;;;;;;18.10;11.60;;;;;;;1.91;100.00;99944.94;109627;1251;60105;-83
2024/02/09 06:59:04;;;;;;;15.10;11.40;;;;;;;1.87;100.00;99939.71;109544;1251;73793;-84
2024/02/09 07:01:32;;;;;;;20.40;14.00;;;;;;;1.89;100.00;99936.04;109500;1251;62421;-84
2024/02/09 07:03:59;;;;;;;20.70;15.50;;;;;;;1.90;100.00;99933.27;109566;1256;72654;-84
2024/02/09 07:06:27;;;;;;;27.10;16.90;;;;;;;1.90;100.00;99937.72;109562;1251;59971;-84
2024/02/09 07:08:56;;;;;;;28.60;18.10;;;;;;;1.87;100.00;99932.66;109543;1253;61913;-84
2024/02/09 07:11:24;;;;;;;26.30;17.60;;;;;;;1.81;100.00;99933.73;109536;1254;72912;-83
2024/02/09 07:13:52;;;;;;;28.60;17.60;;;;;;;1.80;100.00;99935.67;109674;1250;63703;-86
2024/02/09 07:16:20;;;;;;;28.00;18.00;;;;;;;1.78;100.00;99932.61;109470;1251;72547;-82
2024/02/09 07:18:48;;;;;;;33.00;23.00;;;;;;;1.77;100.00;99929.05;109590;1251;62252;-82
2024/02/09 07:21:16;;;;;;;31.70;22.20;;;;;;;1.76;100.00;99922.70;109533;1251;59103;-82
2024/02/09 07:23:49;;;;;;;46.70;28.00;;;;;;;1.76;100.00;99916.17;109633;1251;72933;-82
2024/02/09 07:26:20;;;;;;;43.30;27.20;;;;;;;1.77;100.00;99905.80;109655;1251;65957;-82
2024/02/09 07:28:48;;;;;;;45.20;26.90;;;;;;;1.76;100.00;99896.38;109571;1251;72704;-81
2024/02/09 07:31:16;;;;;;;40.70;25.90;;;;;;;1.74;100.00;99894.17;109544;1251;59757;-82
2024/02/09 07:33:44;;;;;;;42.00;27.00;;;;;;;1.73;100.00;99890.92;109679;1255;60213;-83
2024/02/09 07:36:12;;;;;;;56.10;30.90;;;;;;;1.74;100.00;99890.39;109457;1251;71812;-86
2024/02/09 07:38:41;;;;;;;54.70;32.10;;;;;;;1.73;100.00;99886.13;109592;1258;63758;-85
2024/02/09 07:53:15;;;;;;;32.00;22.20;;;;;;;2.15;100.00;99871.64;108331;1260;997824;-83
2024/02/09 07:55:46;;;;;;;29.70;19.90;;;;;;;2.24;100.00;99871.67;111314;1238;256423;-86
2024/02/09 07:58:22;;;;;;;29.10;19.30;;;;;;;2.19;100.00;99870.29;111595;1238;59002;-86
2024/02/09 08:00:54;;;;;;;33.10;20.10;;;;;;;2.14;100.00;99867.05;111939;1235;70776;-86
2024/02/09 08:06:41;;;;;;;36.80;23.90;;;;;;;2.00;100.00;99863.77;111982;1235;72402;-86
2024/02/09 08:09:36;;;;;;;42.90;25.00;;;;;;;1.94;100.00;99857.11;111927;1238;59952;31
2024/02/09 08:12:05;;;;;;;47.50;28.00;;;;;;;1.88;100.00;99863.69;111789;1237;60466;-86
2024/02/09 08:14:36;;;;;;;50.60;27.80;;;;;;;1.85;100.00;99863.62;111840;1238;70612;-86
2024/02/09 08:17:10;;;;;;;51.40;25.90;;;;;;;1.86;100.00;99859.45;111590;1238;63517;-84
2024/02/09 08:19:38;;;;;;;50.20;28.20;;;;;;;1.88;100.00;99861.80;111506;1238;72509;-82
2024/02/09 08:22:06;;;;;;;46.00;25.00;;;;;;;1.86;100.00;99860.83;111493;1237;59821;-84
2024/02/09 08:24:33;;;;;;;44.20;25.60;;;;;;;1.85;100.00;99860.02;111551;1237;59608;-82
2024/02/09 08:27:02;;;;;;;42.60;27.70;;;;;;;1.84;100.00;99858.12;111382;1237;71743;-82
2024/02/09 08:29:32;;;;;;;44.90;25.70;;;;;;;1.85;100.00;99856.90;111590;1237;62235;-82
2024/02/09 08:31:59;;;;;;;45.70;26.40;;;;;;;1.86;100.00;99851.87;111677;1238;72624;-84
2024/02/09 08:34:28;;;;;;;40.40;23.70;;;;;;;1.89;100.00;99848.48;111538;1238;61398;-83
2024/02/09 08:36:59;;;;;;;35.80;22.80;;;;;;;1.90;100.00;99842.42;111491;1239;58063;-85
2024/02/09 08:39:26;;;;;;;39.20;22.30;;;;;;;1.88;100.00;99839.73;111772;1237;71871;-83
2024/02/09 08:41:54;;;;;;;29.30;19.00;;;;;;;1.86;100.00;99836.88;112019;1236;62499;-83
2024/02/09 08:44:22;;;;;;;24.50;17.30;;;;;;;1.85;100.00;99830.21;111934;1232;71625;-84
2024/02/09 08:46:51;;;;;;;26.70;19.20;;;;;;;1.86;100.00;99824.98;112026;1232;60839;-85
2024/02/09 08:49:21;;;;;;;28.30;18.20;;;;;;;1.89;100.00;99822.13;111424;1232;58996;-83
2024/02/09 08:52:06;;;;;;;23.70;17.50;;;;;;;1.93;100.00;99814.03;111947;1232;72315;-83
2024/02/09 08:54:38;;;;;;;31.20;19.00;;;;;;;1.92;100.00;99807.53;111652;1232;63905;-83
2024/02/09 08:57:18;;;;;;;25.20;17.40;;;;;;;1.88;100.00;99808.20;111900;1232;71130;-83
2024/02/09 08:59:56;;;;;;;25.20;18.50;;;;;;;1.89;100.00;99794.38;111992;1232;60949;-84
2024/02/09 09:02:43;;;;;;;24.80;17.80;;;;;;;1.91;100.00;99789.28;111943;1232;59925;-84
2024/02/09 09:05:34;;;;;;;26.70;18.00;;;;;;;1.99;100.00;99790.55;111821;1232;72159;-82
2024/02/09 09:08:13;;;;;;;30.50;19.40;;;;;;;2.06;100.00;99783.55;111717;1232;63913;-83
2024/02/09 09:10:51;;;;;;;26.40;17.70;;;;;;;2.12;100.00;99759.36;111746;1232;73401;-84
2024/02/09 09:13:33;;;;;;;28.20;18.50;;;;;;;2.19;100.00;99752.02;111847;1232;59593;-81
2024/02/09 09:16:34;;;;;;;22.10;15.50;;;;;;;2.25;100.00;99748.12;111788;1232;61456;-83
2024/02/09 09:19:25;;;;;;;25.20;15.80;;;;;;;2.25;100.00;99736.59;110588;1232;73174;-85
2024/02/09 09:22:23;;;;;;;21.60;16.10;;;;;;;2.22;100.00;99736.04;109659;1239;63736;-84
2024/02/09 09:24:50;;;;;;;19.50;14.50;;;;;;;2.27;100.00;99738.23;108925;1239;72526;-83
2024/02/09 09:27:18;;;;;;;24.20;16.40;;;;;;;2.30;100.00;99742.44;109537;1242;59633;-82
2024/02/09 09:29:46;;;;;;;25.70;16.60;;;;;;;2.32;100.00;99745.77;110399;1232;60128;-83
2024/02/09 09:32:13;;;;;;;18.00;14.50;;;;;;;2.38;100.00;99739.20;110833;1232;72757;-82
2024/02/09 09:34:41;;;;;;;17.00;12.80;;;;;;;2.41;100.00;99737.33;111203;1238;62716;-81
2024/02/09 09:37:08;;;;;;;15.70;12.10;;;;;;;2.43;100.00;99729.34;111137;1238;71543;-83
2024/02/09 09:39:43;;;;;;;14.40;11.60;;;;;;;2.43;100.00;99728.80;111273;1232;60869;-82
2024/02/09 09:42:11;;;;;;;13.80;10.60;;;;;;;2.42;100.00;99726.42;110777;1236;59583;-83
2024/02/09 09:44:38;;;;;;;12.60;10.30;;;;;;;2.44;100.00;99714.27;110507;1237;70804;-82
2024/02/09 09:47:09;;;;;;;13.20;10.70;;;;;;;2.48;100.00;99709.45;110787;1232;64883;-80
2024/02/09 09:49:39;;;;;;;12.20;10.70;;;;;;;2.50;100.00;99710.05;109970;1239;72675;-84
2024/02/09 09:52:11;;;;;;;13.20;10.90;;;;;;;2.52;100.00;99701.19;109619;1236;61630;-84
2024/02/09 09:54:42;;;;;;;19.60;14.20;;;;;;;2.53;100.00;99697.17;109554;1233;60332;-83
2024/02/09 09:57:09;;;;;;;15.20;12.00;;;;;;;2.52;100.00;99696.52;109253;1237;71322;-84
2024/02/09 10:00:23;;;;;;;16.60;11.50;;;;;;;2.53;100.00;99699.23;109246;1232;63528;-87
2024/02/09 10:02:50;;;;;;;14.60;10.30;;;;;;;2.58;100.00;99699.36;109309;1233;71560;-84
2024/02/09 10:08:39;;;;;;;18.50;12.10;;;;;;;2.55;100.00;99688.98;109003;1232;60017;-86
2024/02/09 10:11:06;;;;;;;16.90;12.90;;;;;;;2.55;100.00;99695.88;109034;1237;71484;-85
2024/02/09 10:13:35;;;;;;;16.80;12.60;;;;;;;2.59;100.00;99703.81;109003;1236;62667;-85
2024/02/09 10:16:03;;;;;;;14.80;12.50;;;;;;;2.64;100.00;99696.17;109065;1232;71447;-85
2024/02/09 10:18:33;;;;;;;19.70;13.70;;;;;;;2.64;100.00;99688.60;109247;1245;61057;-85
2024/02/09 10:21:00;;;;;;;17.40;12.60;;;;;;;2.62;100.00;99684.70;109135;1237;60482;-84
2024/02/09 10:23:29;;;;;;;14.00;11.60;;;;;;;2.63;100.00;99677.25;108961;1238;73993;-86
2024/02/09 10:25:58;;;;;;;17.70;13.10;;;;;;;2.66;100.00;99670.04;109487;1239;63099;-88
2024/02/09 10:28:28;;;;;;;19.80;13.80;;;;;;;2.72;100.00;99669.13;108925;1236;72717;-85
2024/02/09 10:30:59;;;;;;;20.40;13.80;;;;;;;2.80;100.00;99663.07;108835;1239;59982;-84
2024/02/09 10:33:26;;;;;;;19.90;14.20;;;;;;;2.83;100.00;99654.83;108756;1238;60155;-85
2024/02/09 10:35:57;;;;;;;17.90;13.60;;;;;;;2.84;100.00;99650.27;108728;1238;73211;-83
2024/02/09 10:38:26;;;;;;;18.80;14.40;;;;;;;2.88;100.00;99650.11;108927;1237;62404;-84
2024/02/09 10:40:56;;;;;;;21.20;14.80;;;;;;;2.91;100.00;99647.71;108860;1237;72736;-86
2024/02/09 10:43:27;;;;;;;19.60;14.00;;;;;;;2.96;100.00;99645.96;108930;1236;62111;-85
2024/02/09 10:45:54;;;;;;;21.10;16.00;;;;;;;2.98;100.00;99645.34;108861;1237;59642;-84
2024/02/09 10:48:34;;;;;;;20.10;13.80;;;;;;;3.01;100.00;99646.58;108831;1237;73097;-84
2024/02/09 10:51:05;;;;;;;17.20;13.90;;;;;;;3.03;100.00;99644.79;108892;1232;63556;-84
2024/02/09 10:53:35;;;;;;;21.00;14.20;;;;;;;3.04;100.00;99644.04;109008;1232;71008;-83
2024/02/09 10:56:04;;;;;;;20.00;14.60;;;;;;;3.07;100.00;99646.70;109771;1234;59741;-81
2024/02/09 10:58:34;;;;;;;19.30;14.10;;;;;;;3.09;100.00;99641.57;109277;1234;60526;-84
2024/02/09 11:01:04;;;;;;;18.70;14.20;;;;;;;3.11;100.00;99636.81;109433;1233;74286;-83
2024/02/09 11:03:32;;;;;;;20.80;15.10;;;;;;;3.13;100.00;99635.37;108813;1232;61942;-82
2024/02/09 11:06:04;;;;;;;17.60;13.10;;;;;;;3.17;100.00;99634.49;109022;1238;72746;-83
2024/02/09 11:08:34;;;;;;;19.20;14.80;;;;;;;3.21;100.00;99640.38;108759;1239;61261;-84
2024/02/09 11:11:01;;;;;;;18.00;15.20;;;;;;;3.23;100.00;99642.17;108803;1241;59502;-83
2024/02/09 11:13:29;;;;;;;28.40;19.50;;;;;;;3.26;100.00;99637.36;108852;1233;72080;-84
2024/02/09 11:15:57;;;;;;;31.20;19.00;;;;;;;3.30;100.00;99638.39;108818;1237;63895;-85
2024/02/09 11:18:34;;;;;;;23.00;16.00;;;;;;;3.35;100.00;99628.88;109002;1232;71613;-86
2024/02/09 11:21:05;;;;;;;35.50;21.70;;;;;;;3.35;100.00;99633.31;109005;1232;61501;-84
2024/02/09 11:23:33;;;;;;;38.30;21.90;;;;;;;3.36;100.00;99634.83;109437;1235;60447;-83
2024/02/09 11:26:00;;;;;;;36.90;22.30;;;;;;;3.34;100.00;99631.98;109671;1237;71992;-84
2024/02/09 11:28:27;;;;;;;32.00;21.30;;;;;;;3.35;100.00;99631.77;110433;1232;63517;-84
2024/02/09 11:30:58;;;;;;;32.80;22.00;;;;;;;3.39;100.00;99635.38;111729;1235;71405;-83
2024/02/09 11:33:26;;;;;;;31.20;21.20;;;;;;;3.44;100.00;99635.32;110248;1235;59696;-86
2024/02/09 11:35:52;;;;;;;36.20;25.10;;;;;;;3.48;100.00;99637.37;108630;1241;59600;-84
2024/02/09 11:38:22;;;;;;;39.50;22.60;;;;;;;3.53;100.00;99642.67;108919;1239;72943;-85
2024/02/09 11:40:50;;;;;;;40.90;24.30;;;;;;;3.57;100.00;99649.08;108883;1237;63203;-84
2024/02/09 11:43:17;;;;;;;33.40;22.40;;;;;;;3.60;100.00;99661.86;108872;1235;71620;-83
2024/02/09 11:45:45;;;;;;;35.40;22.30;;;;;;;3.61;100.00;99661.86;108778;1237;60275;-83
2024/02/09 11:48:13;;;;;;;31.80;21.50;;;;;;;3.59;100.00;99656.25;108935;1237;59541;-84
2024/02/09 11:50:43;;;;;;;36.20;22.40;;;;;;;3.57;100.00;99651.98;109213;1233;73967;-83
2024/02/09 11:53:10;;;;;;;31.50;20.40;;;;;;;3.56;100.00;99647.90;109633;1239;62331;-82
2024/02/09 11:55:41;;;;;;;28.90;19.80;;;;;;;3.56;100.00;99659.32;108887;1232;73690;-83
2024/02/09 11:58:08;;;;;;;33.70;21.50;;;;;;;3.52;100.00;99667.77;109250;1234;61417;-83
2024/02/09 12:00:36;;;;;;;30.30;20.90;;;;;;;3.51;100.00;99661.07;109225;1235;61253;-82
2024/02/09 12:03:04;;;;;;;34.00;19.10;;;;;;;3.53;100.00;99663.23;109651;1239;72133;-84
2024/02/09 12:05:31;;;;;;;28.50;19.40;;;;;;;3.49;100.00;99671.20;109790;1237;64784;-82
2024/02/09 12:07:59;;;;;;;31.30;20.30;;;;;;;3.43;100.00;99678.54;108872;1232;72568;-82
2024/02/09 12:10:26;;;;;;;28.50;19.50;;;;;;;3.40;100.00;99682.17;108908;1232;60426;-81
2024/02/09 12:12:53;;;;;;;31.90;19.40;;;;;;;3.35;100.00;99680.83;108903;1232;60551;-82
2024/02/09 12:15:20;;;;;;;27.20;17.80;;;;;;;3.32;100.00;99683.55;108986;1236;73354;-83
2024/02/09 12:17:47;;;;;;;24.00;17.50;;;;;;;3.32;100.00;99684.21;108857;1236;64753;-84
2024/02/09 12:20:15;;;;;;;25.30;18.90;;;;;;;3.32;100.00;99674.41;108983;1236;72017;-83
2024/02/09 12:22:45;;;;;;;29.30;17.50;;;;;;;3.29;100.00;99675.56;108498;1232;60562;-83
2024/02/09 12:25:15;;;;;;;27.20;17.20;;;;;;;3.25;100.00;99671.44;108837;1237;60443;-84
2024/02/09 12:27:42;;;;;;;24.40;16.50;;;;;;;3.23;100.00;99663.75;108966;1237;74001;-84
2024/02/09 12:30:10;;;;;;;26.60;18.90;;;;;;;3.20;100.00;99668.05;108846;1239;62497;-83
2024/02/09 12:32:37;;;;;;;28.70;17.40;;;;;;;3.19;100.00;99679.12;108926;1236;71594;-82
2024/02/09 12:35:05;;;;;;;33.50;19.40;;;;;;;3.19;100.00;99684.31;108913;1238;62910;-82
2024/02/09 12:37:32;;;;;;;27.60;19.10;;;;;;;3.19;100.00;99678.08;108890;1236;60434;-83
2024/02/09 12:40:01;;;;;;;30.20;20.50;;;;;;;3.20;100.00;99674.92;108957;1237;72838;-84
2024/02/09 12:42:32;;;;;;;35.40;23.20;;;;;;;3.22;100.00;99670.19;108848;1239;63954;-82
2024/02/09 12:45:01;;;;;;;33.70;22.60;;;;;;;3.27;100.00;99664.95;109026;1236;74238;-82
2024/02/09 12:47:29;;;;;;;44.10;27.00;;;;;;;3.29;100.00;99663.80;108904;1240;60544;-84
2024/02/09 12:49:56;;;;;;;42.30;25.20;;;;;;;3.28;100.00;99678.88;108889;1232;61838;-82
2024/02/09 12:52:27;;;;;;;48.30;29.00;;;;;;;3.27;100.00;99682.08;108662;1238;73844;-82
2024/02/09 12:54:54;;;;;;;40.90;26.10;;;;;;;3.27;100.00;99686.05;109295;1232;63455;-81
2024/02/09 12:57:22;;;;;;;45.40;27.30;;;;;;;3.27;100.00;99696.04;109671;1235;70556;-81
2024/02/09 12:59:50;;;;;;;47.40;27.20;;;;;;;3.30;100.00;99687.77;109122;1237;60459;-81
2024/02/09 13:02:22;;;;;;;45.10;28.10;;;;;;;3.27;100.00;99679.30;108975;1233;60465;-83
2024/02/09 13:04:49;;;;;;;46.50;27.70;;;;;;;3.24;100.00;99680.27;108583;1240;72702;-83
2024/02/09 13:07:16;;;;;;;50.00;28.80;;;;;;;3.26;100.00;99678.64;108951;1240;63193;-82
2024/02/09 13:09:43;;;;;;;43.90;27.30;;;;;;;3.27;100.00;99678.09;108927;1244;72479;-81
2024/02/09 13:12:11;;;;;;;49.60;27.40;;;;;;;3.26;100.00;99672.45;109203;1240;60497;-80
2024/02/09 13:14:39;;;;;;;43.30;26.90;;;;;;;3.24;100.00;99668.90;109447;1232;61435;-81
2024/02/09 13:17:10;;;;;;;52.70;28.50;;;;;;;3.19;100.00;99676.35;108835;1232;72091;-82
2024/02/09 13:19:38;;;;;;;55.00;30.20;;;;;;;3.13;100.00;99685.61;109311;1238;62210;-84
2024/02/09 13:22:08;;;;;;;57.30;33.80;;;;;;;3.11;100.00;99687.78;109060;1237;70707;-82
2024/02/09 13:24:42;;;;;;;58.50;32.60;;;;;;;3.14;100.00;99686.62;109141;1238;61060;-83